createdAt,value
2019-05-05T00:01:48.076Z,1.20
2019-05-05T00:04:28.786Z,1.50
2019-05-05T00:06:59.998Z,1.22
2019-05-05T00:09:31.341Z,1.10
2019-05-05T00:12:18.989Z,1.53
2019-05-05T00:15:08.128Z,1.70
2019-05-05T00:17:39.695Z,1.47
2019-05-05T00:20:11.572Z,1.27
2019-05-05T00:22:45.414Z,1.27
2019-05-05T00:25:16.264Z,1.70
2019-05-05T00:27:47.327Z,1.27
2019-05-05T00:30:18.475Z,1.60
2019-05-05T00:32:49.528Z,1.50
2019-05-05T00:35:21.000Z,1.73
2019-05-05T00:37:52.024Z,1.53
2019-05-05T00:40:24.835Z,1.70
2019-05-05T00:42:56.028Z,1.50
2019-05-05T00:45:29.136Z,2.23
2019-05-05T00:48:06.843Z,1.50
2019-05-05T00:50:37.977Z,1.57
2019-05-05T00:53:08.955Z,1.17
2019-05-05T00:55:39.955Z,1.22
2019-05-05T00:58:10.938Z,1.37
2019-05-05T01:00:54.796Z,1.97
2019-05-05T01:03:27.294Z,1.63
2019-05-05T01:06:14.984Z,1.47
2019-05-05T01:08:45.772Z,1.10
2019-05-05T01:11:17.723Z,1.73
2019-05-05T01:13:48.778Z,2.17
2019-05-05T01:16:20.013Z,1.97
2019-05-05T01:18:51.000Z,1.90
2019-05-05T01:21:24.290Z,1.90
2019-05-05T01:23:54.984Z,1.97
2019-05-05T01:26:26.067Z,2.73
2019-05-05T01:28:57.147Z,1.80
2019-05-05T01:31:28.262Z,1.83
2019-05-05T01:34:15.210Z,2.45
2019-05-05T01:36:48.592Z,2.10
2019-05-05T01:39:28.198Z,2.07
2019-05-05T01:42:01.891Z,2.00
2019-05-05T01:44:35.103Z,1.67
2019-05-05T01:47:06.030Z,1.50
2019-05-05T01:49:37.110Z,1.63
2019-05-05T01:52:08.278Z,2.27
2019-05-05T01:54:39.272Z,1.83
2019-05-05T01:57:10.602Z,1.83
2019-05-05T01:59:42.292Z,1.62
2019-05-05T02:02:14.596Z,1.77
2019-05-05T02:04:45.949Z,2.63
2019-05-05T02:07:17.014Z,2.53
2019-05-05T02:09:48.079Z,1.70
2019-05-05T02:12:19.173Z,2.10
2019-05-05T02:14:50.365Z,1.50
2019-05-05T02:17:21.500Z,2.30
2019-05-05T02:19:54.802Z,1.97
2019-05-05T02:22:25.604Z,2.33
2019-05-05T02:24:56.736Z,1.32
2019-05-05T02:27:27.879Z,1.27
2019-05-05T02:30:16.181Z,2.27
2019-05-05T02:32:50.014Z,1.67
2019-05-05T02:35:21.160Z,2.43
2019-05-05T02:37:52.156Z,2.07
2019-05-05T02:40:24.540Z,1.77
2019-05-05T02:42:56.025Z,2.53
2019-05-05T02:46:30.424Z,1.87
2019-05-05T02:49:05.294Z,2.10
2019-05-05T02:51:37.017Z,2.87
2019-05-05T02:54:08.170Z,2.23
2019-05-05T02:56:46.493Z,2.30
2019-05-05T02:59:25.680Z,1.93
2019-05-05T03:02:04.154Z,2.40
2019-05-05T03:04:36.267Z,2.58
2019-05-05T03:07:09.111Z,2.30
2019-05-05T03:09:43.975Z,2.15
2019-05-05T03:12:17.404Z,2.00
2019-05-05T03:14:50.477Z,2.40
2019-05-05T03:17:23.461Z,2.37
2019-05-05T03:19:55.379Z,2.30
2019-05-05T03:22:27.898Z,1.98
2019-05-05T03:24:59.274Z,2.60
2019-05-05T03:27:30.465Z,1.97
2019-05-05T03:30:05.014Z,2.20
2019-05-05T03:32:36.300Z,2.20
2019-05-05T03:35:07.800Z,1.50
2019-05-05T03:37:39.304Z,1.93
2019-05-05T03:40:18.963Z,2.23
2019-05-05T03:43:00.995Z,2.43
2019-05-05T03:45:53.971Z,3.00
2019-05-05T03:48:25.569Z,1.80
2019-05-05T03:50:57.764Z,1.87
2019-05-05T03:53:29.355Z,2.40
2019-05-05T03:56:00.732Z,2.00
2019-05-05T03:58:34.348Z,2.33
2019-05-05T04:01:34.598Z,2.13
2019-05-05T04:04:24.496Z,1.80
2019-05-05T04:06:56.508Z,1.92
2019-05-05T04:09:27.575Z,1.70
2019-05-05T04:11:58.680Z,2.10
2019-05-05T04:14:29.757Z,1.87
2019-05-05T04:17:24.476Z,2.53
2019-05-05T04:19:56.819Z,1.63
2019-05-05T04:22:27.907Z,1.83
2019-05-05T04:24:58.901Z,2.13
2019-05-05T04:27:30.234Z,2.37
2019-05-05T04:30:03.842Z,2.43
2019-05-05T04:32:36.185Z,2.30
2019-05-05T04:35:07.571Z,1.53
2019-05-05T04:37:38.710Z,2.60
2019-05-05T04:40:10.015Z,2.00
2019-05-05T04:42:41.028Z,2.04
2019-05-05T04:45:14.841Z,2.03
2019-05-05T04:47:49.142Z,2.67
2019-05-05T04:50:34.642Z,2.58
2019-05-05T04:53:09.753Z,2.60
2019-05-05T04:55:40.747Z,1.82
2019-05-05T04:58:13.671Z,2.10
2019-05-05T05:00:45.100Z,2.47
2019-05-05T05:03:35.090Z,2.08
2019-05-05T05:06:14.650Z,1.92
2019-05-05T05:08:45.608Z,2.60
2019-05-05T05:11:16.595Z,1.57
2019-05-05T05:13:47.656Z,2.02
2019-05-05T05:16:18.660Z,1.77
2019-05-05T05:18:49.660Z,1.90
2019-05-05T05:21:20.666Z,1.90
2019-05-05T05:23:53.449Z,1.97
2019-05-05T05:26:24.376Z,1.57
2019-05-05T05:28:55.383Z,1.50
2019-05-05T05:31:26.390Z,2.23
2019-05-05T05:33:57.473Z,1.20
2019-05-05T05:36:28.462Z,1.72
2019-05-05T05:39:05.759Z,1.70
2019-05-05T05:41:43.673Z,1.97
2019-05-05T05:44:38.396Z,1.77
2019-05-05T05:47:17.241Z,1.90
2019-05-05T05:49:54.429Z,2.10
2019-05-05T05:52:25.390Z,1.80
2019-05-05T05:54:56.403Z,2.13
2019-05-05T05:57:27.591Z,1.70
2019-05-05T05:59:58.550Z,1.40
2019-05-05T06:02:29.555Z,2.10
2019-05-05T06:05:00.545Z,2.10
2019-05-05T06:07:33.500Z,2.30
2019-05-05T06:10:04.949Z,1.73
2019-05-05T06:12:36.519Z,1.57
2019-05-05T06:15:07.753Z,2.40
2019-05-05T06:17:39.032Z,1.80
2019-05-05T06:20:10.315Z,1.90
2019-05-05T06:22:41.323Z,1.82
2019-05-05T06:25:16.012Z,1.70
2019-05-05T06:27:45.218Z,1.70
2019-05-05T06:30:16.754Z,1.50
2019-05-05T06:32:47.908Z,1.60
2019-05-05T06:35:19.351Z,1.80
2019-05-05T06:37:54.538Z,1.20
2019-05-05T06:40:41.214Z,1.73
2019-05-05T06:43:29.862Z,1.13
2019-05-05T06:46:04.073Z,1.10
2019-05-05T06:48:35.286Z,1.43
2019-05-05T06:51:06.757Z,1.47
2019-05-05T06:53:37.973Z,1.57
2019-05-05T06:56:09.099Z,1.87
2019-05-05T06:58:40.136Z,1.70
2019-05-05T07:01:11.231Z,1.20
2019-05-05T07:03:43.890Z,1.73
2019-05-05T07:06:15.212Z,1.67
2019-05-05T07:08:46.309Z,1.30
2019-05-05T07:11:17.688Z,1.90
2019-05-05T07:13:48.791Z,1.40
2019-05-05T07:16:19.845Z,1.25
2019-05-05T07:18:50.866Z,2.40
2019-05-05T07:21:23.929Z,1.83
2019-05-05T07:23:54.994Z,1.60
2019-05-05T07:26:26.082Z,1.63
2019-05-05T07:28:57.558Z,2.20
2019-05-05T07:31:28.626Z,1.83
2019-05-05T07:33:59.835Z,1.30
2019-05-05T07:36:38.899Z,1.50
2019-05-05T07:39:11.335Z,1.73
2019-05-05T07:41:44.552Z,1.63
2019-05-05T07:44:25.921Z,1.80
2019-05-05T07:46:48.108Z,1.53
2019-05-05T07:49:19.432Z,1.50
2019-05-05T07:51:50.440Z,1.37
2019-05-05T07:54:23.530Z,1.57
2019-05-05T07:56:54.658Z,1.70
2019-05-05T07:59:25.995Z,1.60
2019-05-05T08:01:57.760Z,1.52
2019-05-05T08:04:28.857Z,1.70
2019-05-05T08:06:59.912Z,1.73
2019-05-05T08:09:30.935Z,1.70
2019-05-05T08:12:04.209Z,1.40
2019-05-05T08:14:35.064Z,1.37
2019-05-05T08:17:29.543Z,1.12
2019-05-05T08:20:07.886Z,1.13
2019-05-05T08:22:39.130Z,1.90
2019-05-05T08:25:36.345Z,1.23
2019-05-05T08:28:17.449Z,0.77
2019-05-05T08:31:10.271Z,1.60
2019-05-05T08:33:41.352Z,1.27
2019-05-05T08:36:14.545Z,1.30
2019-05-05T08:38:45.290Z,1.03
2019-05-05T08:41:16.279Z,1.30
2019-05-05T08:43:47.373Z,1.37
2019-05-05T08:46:18.369Z,1.03
2019-05-05T08:48:50.477Z,1.33
2019-05-05T08:51:21.526Z,1.60
2019-05-05T08:53:54.424Z,1.40
2019-05-05T08:56:25.690Z,0.87
2019-05-05T08:58:57.935Z,0.90
2019-05-05T09:01:28.923Z,1.00
2019-05-05T09:04:00.058Z,1.00
2019-05-05T09:06:31.111Z,1.23
2019-05-05T09:09:03.858Z,1.00
2019-05-05T09:11:36.759Z,0.83
2019-05-05T09:14:08.023Z,0.75
2019-05-05T09:16:39.084Z,0.80
2019-05-05T09:19:14.671Z,0.78
2019-05-05T09:21:46.682Z,1.37
2019-05-05T09:24:36.599Z,0.93
2019-05-05T09:27:34.532Z,0.70
2019-05-05T09:30:06.522Z,0.50
2019-05-05T09:32:37.654Z,0.90
2019-05-05T09:35:09.211Z,0.40
2019-05-05T09:37:40.775Z,0.80
2019-05-05T09:40:13.906Z,0.87
2019-05-05T09:42:45.007Z,0.93
2019-05-05T09:45:17.308Z,0.98
2019-05-05T09:47:48.824Z,1.17
2019-05-05T09:50:20.204Z,0.90
2019-05-05T09:52:51.206Z,0.97
2019-05-05T09:55:24.078Z,2.58
2019-05-05T09:57:56.247Z,1.00
2019-05-05T10:00:27.399Z,0.50
2019-05-05T10:02:58.614Z,0.77
2019-05-05T10:05:29.869Z,0.80
2019-05-05T10:08:01.040Z,1.10
2019-05-05T10:10:33.723Z,0.70
2019-05-05T10:13:06.008Z,1.00
2019-05-05T10:15:37.074Z,0.90
2019-05-05T10:18:08.092Z,0.87
2019-05-05T10:20:39.327Z,0.80
2019-05-05T10:23:10.478Z,1.00
2019-05-05T10:25:47.790Z,0.93
2019-05-05T10:28:19.046Z,0.63
2019-05-05T10:30:50.346Z,0.57
2019-05-05T10:33:21.469Z,1.15
2019-05-05T10:35:54.115Z,1.12
2019-05-05T10:38:25.311Z,0.63
2019-05-05T10:40:56.412Z,1.10
2019-05-05T10:43:27.641Z,0.83
2019-05-05T10:46:03.968Z,0.90
2019-05-05T10:48:35.024Z,0.70
2019-05-05T10:51:06.856Z,0.62
2019-05-05T10:53:38.001Z,1.00
2019-05-05T10:56:09.003Z,0.40
2019-05-05T10:58:41.131Z,1.05
2019-05-05T11:01:14.357Z,0.70
2019-05-05T11:03:45.365Z,1.07
2019-05-05T11:06:16.993Z,1.10
2019-05-05T11:08:48.433Z,0.67
2019-05-05T11:11:19.512Z,0.70
2019-05-05T11:13:50.612Z,1.13
2019-05-05T11:16:21.728Z,0.72
2019-05-05T11:18:54.025Z,1.20
2019-05-05T11:21:25.415Z,0.82
2019-05-05T11:23:56.476Z,1.23
2019-05-05T11:26:27.566Z,0.67
2019-05-05T11:28:58.624Z,0.90
2019-05-05T11:31:29.819Z,0.90
2019-05-05T11:34:09.841Z,1.00
2019-05-05T11:37:03.712Z,0.78
2019-05-05T11:39:34.881Z,0.83
2019-05-05T11:42:07.038Z,0.90
2019-05-05T11:44:38.365Z,0.70
2019-05-05T11:47:09.502Z,0.95
2019-05-05T11:49:40.638Z,1.00
2019-05-05T11:52:11.620Z,0.70
2019-05-05T11:54:43.873Z,1.07
2019-05-05T11:57:15.524Z,0.90
2019-05-05T11:59:46.555Z,0.70
2019-05-05T12:02:17.578Z,1.02
2019-05-05T12:04:48.752Z,0.80
2019-05-05T12:07:19.761Z,0.80
2019-05-05T12:09:56.931Z,1.03
2019-05-05T12:12:28.099Z,1.00
2019-05-05T12:14:59.215Z,0.40
2019-05-05T12:17:36.562Z,0.77
2019-05-05T12:20:09.426Z,0.45
2019-05-05T12:22:40.416Z,0.70
2019-05-05T12:25:31.145Z,0.70
2019-05-05T12:28:06.897Z,0.77
2019-05-05T12:30:38.045Z,0.60
2019-05-05T12:33:09.054Z,0.68
2019-05-05T12:35:40.161Z,1.35
2019-05-05T12:38:11.169Z,1.10
2019-05-05T12:40:44.171Z,0.90
2019-05-05T12:43:15.409Z,0.57
2019-05-05T12:45:48.824Z,0.50
2019-05-05T12:48:29.280Z,0.50
2019-05-05T12:51:00.934Z,1.17
2019-05-05T12:53:31.929Z,0.50
2019-05-05T12:56:04.062Z,0.90
2019-05-05T12:58:35.476Z,1.10
2019-05-05T13:01:19.728Z,0.62
2019-05-05T13:03:50.781Z,1.07
2019-05-05T13:06:23.847Z,0.62
2019-05-05T13:08:54.985Z,0.60
2019-05-05T13:11:26.431Z,0.90
2019-05-05T13:13:58.710Z,1.00
2019-05-05T13:16:29.940Z,0.80
2019-05-05T13:19:04.387Z,0.80
2019-05-05T13:22:09.919Z,0.73
2019-05-05T13:24:55.845Z,0.80
2019-05-05T13:27:30.264Z,0.90
2019-05-05T13:30:01.301Z,0.80
2019-05-05T13:32:33.653Z,0.50
2019-05-05T13:35:06.374Z,0.50
2019-05-05T13:37:37.498Z,0.80
2019-05-05T13:40:09.469Z,0.40
2019-05-05T13:42:40.704Z,0.90
2019-05-05T13:45:28.453Z,0.55
2019-05-05T13:47:59.456Z,0.80
2019-05-05T13:50:34.634Z,0.40
2019-05-05T13:53:05.857Z,0.50
2019-05-05T13:55:37.767Z,0.55
2019-05-05T13:58:09.093Z,0.90
2019-05-05T14:00:40.384Z,0.80
2019-05-05T14:03:11.400Z,0.53
2019-05-05T14:05:43.711Z,0.70
2019-05-05T14:08:15.176Z,0.53
2019-05-05T14:10:46.310Z,0.30
2019-05-05T14:13:17.328Z,0.63
2019-05-05T14:15:48.632Z,0.60
2019-05-05T14:18:19.655Z,0.57
2019-05-05T14:20:50.669Z,0.70
2019-05-05T14:23:23.897Z,0.80
2019-05-05T14:25:54.685Z,0.90
2019-05-05T14:28:25.778Z,0.80
2019-05-05T14:31:02.637Z,0.70
2019-05-05T14:33:54.100Z,0.60
2019-05-05T14:36:38.362Z,0.83
2019-05-05T14:39:10.982Z,0.60
2019-05-05T14:41:44.482Z,0.77
2019-05-05T14:44:15.534Z,0.70
2019-05-05T14:46:46.777Z,0.62
2019-05-05T14:49:17.769Z,0.77
2019-05-05T14:51:48.848Z,0.70
2019-05-05T14:54:19.892Z,0.70
2019-05-05T14:56:50.977Z,0.50
2019-05-05T14:59:23.520Z,0.50
2019-05-05T15:01:54.570Z,0.50
2019-05-05T15:04:27.455Z,0.60
2019-05-05T15:07:23.919Z,0.60
2019-05-05T15:10:14.486Z,0.60
2019-05-05T15:12:49.549Z,0.77
2019-05-05T15:15:20.738Z,0.63
2019-05-05T15:17:53.698Z,0.70
2019-05-05T15:20:24.629Z,0.82
2019-05-05T15:22:55.682Z,0.80
2019-05-05T15:25:26.990Z,0.57
2019-05-05T15:27:59.098Z,0.70
2019-05-05T15:30:30.119Z,0.63
2019-05-05T15:33:01.515Z,0.77
2019-05-05T15:35:33.971Z,0.63
2019-05-05T15:38:05.252Z,1.00
2019-05-05T15:40:36.317Z,0.60
2019-05-05T15:43:08.466Z,0.70
2019-05-05T15:45:39.595Z,0.60
2019-05-05T15:48:10.660Z,1.00
2019-05-05T15:50:43.839Z,0.50
2019-05-05T15:53:14.663Z,0.80
2019-05-05T15:55:45.936Z,1.10
2019-05-05T15:58:20.670Z,0.73
2019-05-05T16:00:50.353Z,0.57
2019-05-05T16:03:21.383Z,1.02
2019-05-05T16:05:54.227Z,1.23
2019-05-05T16:08:25.165Z,1.00
2019-05-05T16:10:56.243Z,1.23
2019-05-05T16:13:27.399Z,0.50
2019-05-05T16:16:19.360Z,0.37
2019-05-05T16:19:05.555Z,0.50
2019-05-05T16:21:40.339Z,0.50
2019-05-05T16:24:20.013Z,0.70
2019-05-05T16:26:51.134Z,0.70
2019-05-05T16:29:23.783Z,0.50
2019-05-05T16:31:55.025Z,0.67
2019-05-05T16:34:26.208Z,0.80
2019-05-05T16:36:57.337Z,0.87
2019-05-05T16:39:28.361Z,0.60
2019-05-05T16:41:59.434Z,0.87
2019-05-05T16:44:30.497Z,0.80
2019-05-05T16:47:01.587Z,0.70
2019-05-05T16:49:35.294Z,0.70
2019-05-05T16:52:11.076Z,2.10
2019-05-05T16:55:04.522Z,1.30
2019-05-05T16:57:36.904Z,0.70
2019-05-05T17:00:08.909Z,1.10
2019-05-05T17:02:40.025Z,0.90
2019-05-05T17:05:13.634Z,0.70
2019-05-05T17:07:44.246Z,0.90
2019-05-05T17:10:15.837Z,0.80
2019-05-05T17:12:47.037Z,0.77
2019-05-05T17:15:45.580Z,0.67
2019-05-05T17:18:54.180Z,1.07
2019-05-05T17:21:44.552Z,0.85
2019-05-05T17:24:15.752Z,0.70
2019-05-05T17:26:46.840Z,0.50
2019-05-05T17:29:17.930Z,0.70
2019-05-05T17:31:49.102Z,0.80
2019-05-05T17:34:20.129Z,0.70
2019-05-05T17:36:51.216Z,0.80
2019-05-05T17:39:23.875Z,0.68
2019-05-05T17:42:05.684Z,0.60
2019-05-05T17:44:55.624Z,0.77
2019-05-05T17:47:34.353Z,0.67
2019-05-05T17:50:11.724Z,0.65
2019-05-05T17:52:53.739Z,1.00
2019-05-05T17:55:29.061Z,0.75
2019-05-05T17:58:02.593Z,0.60
2019-05-05T18:00:35.308Z,1.20
2019-05-05T18:03:08.501Z,0.40
2019-05-05T18:05:57.771Z,0.70
2019-05-05T18:08:59.867Z,1.00
2019-05-05T18:11:44.065Z,0.50
2019-05-05T18:14:20.098Z,0.80
2019-05-05T18:16:51.280Z,0.97
2019-05-05T18:19:22.357Z,1.00
2019-05-05T18:21:54.739Z,0.80
2019-05-05T18:24:25.959Z,1.20
2019-05-05T18:26:57.210Z,1.03
2019-05-05T18:29:28.287Z,0.90
2019-05-05T18:31:59.730Z,1.60
2019-05-05T18:34:31.050Z,0.83
2019-05-05T18:37:03.739Z,0.97
2019-05-05T18:39:34.965Z,0.67
2019-05-05T18:42:34.165Z,0.87
2019-05-05T18:45:09.467Z,1.67
2019-05-05T18:47:40.453Z,0.70
2019-05-05T18:50:13.629Z,0.90
2019-05-05T18:52:47.142Z,1.00
2019-05-05T18:55:17.608Z,0.70
2019-05-05T18:57:48.775Z,0.80
2019-05-05T19:00:30.097Z,0.88
2019-05-05T19:03:17.476Z,0.77
2019-05-05T19:05:49.253Z,0.70
2019-05-05T19:08:29.452Z,0.78
2019-05-05T19:11:00.607Z,0.80
2019-05-05T19:13:33.892Z,0.67
2019-05-05T19:16:04.513Z,0.95
2019-05-05T19:18:36.630Z,0.83
2019-05-05T19:21:29.357Z,0.97
2019-05-05T19:24:00.515Z,0.97
2019-05-05T19:26:33.646Z,0.50
2019-05-05T19:29:05.158Z,1.00
2019-05-05T19:31:36.686Z,0.57
2019-05-05T19:34:09.101Z,0.90
2019-05-05T19:36:40.168Z,0.60
2019-05-05T19:39:13.552Z,0.93
2019-05-05T19:41:46.918Z,0.60
2019-05-05T19:44:17.009Z,0.77
2019-05-05T19:46:56.668Z,0.75
2019-05-05T19:49:28.748Z,0.60
2019-05-05T19:51:59.834Z,0.80
2019-05-05T19:54:30.918Z,0.73
2019-05-05T19:57:03.815Z,0.60
2019-05-05T19:59:35.855Z,0.80
2019-05-05T20:02:08.095Z,0.90
2019-05-05T20:04:39.588Z,0.82
2019-05-05T20:07:10.764Z,0.78
2019-05-05T20:09:43.565Z,0.90
2019-05-05T20:12:14.846Z,0.80
2019-05-05T20:14:45.982Z,0.77
2019-05-05T20:17:23.350Z,1.00
2019-05-05T20:19:54.731Z,1.00
2019-05-05T20:22:25.847Z,1.50
2019-05-05T20:24:56.962Z,1.40
2019-05-05T20:27:28.086Z,0.77
2019-05-05T20:30:00.347Z,0.75
2019-05-05T20:32:40.760Z,0.90
2019-05-05T20:35:35.272Z,0.60
2019-05-05T20:38:26.759Z,0.80
2019-05-05T20:41:14.542Z,1.13
2019-05-05T20:43:45.839Z,0.50
2019-05-05T20:46:17.670Z,1.07
2019-05-05T20:48:48.810Z,1.10
2019-05-05T20:51:19.931Z,1.37
2019-05-05T20:53:50.951Z,0.80
2019-05-05T20:56:22.453Z,1.73
2019-05-05T20:58:54.930Z,1.60
2019-05-05T21:01:27.234Z,1.50
2019-05-05T21:03:58.246Z,0.72
2019-05-05T21:06:29.279Z,1.45
2019-05-05T21:09:00.285Z,1.10
2019-05-05T21:11:31.951Z,1.43
2019-05-05T21:14:04.030Z,1.40
2019-05-05T21:16:35.097Z,1.07
2019-05-05T21:19:06.233Z,1.27
2019-05-05T21:21:39.342Z,1.10
2019-05-05T21:24:10.480Z,1.00
2019-05-05T21:27:04.077Z,1.00
2019-05-05T21:29:41.422Z,0.97
2019-05-05T21:32:07.605Z,0.70
2019-05-05T21:34:39.355Z,0.70
2019-05-05T21:37:10.430Z,0.82
2019-05-05T21:39:41.496Z,0.70
2019-05-05T21:42:14.112Z,1.00
2019-05-05T21:44:45.214Z,0.90
2019-05-05T21:47:16.211Z,1.17
2019-05-05T21:49:47.276Z,0.90
2019-05-05T21:52:34.766Z,1.30
2019-05-05T21:55:18.580Z,1.22
2019-05-05T21:58:05.069Z,1.13
2019-05-05T22:00:54.768Z,0.70
2019-05-05T22:03:34.563Z,1.23
2019-05-05T22:06:06.977Z,1.67
2019-05-05T22:08:38.038Z,1.27
2019-05-05T22:11:09.555Z,0.76
2019-05-05T22:13:40.561Z,1.07
2019-05-05T22:16:13.504Z,0.85
2019-05-05T22:18:46.697Z,1.06
2019-05-05T22:21:26.532Z,1.13
2019-05-05T22:24:16.089Z,1.10
2019-05-05T22:26:47.326Z,0.97
2019-05-05T22:29:18.605Z,1.00
2019-05-05T22:31:49.712Z,1.00
2019-05-05T22:34:20.811Z,0.83
2019-05-05T22:36:51.801Z,1.03
2019-05-05T22:39:24.356Z,0.70
2019-05-05T22:41:55.648Z,0.93
2019-05-05T22:44:26.703Z,0.90
2019-05-05T22:46:57.744Z,1.23
2019-05-05T22:49:28.893Z,0.47
2019-05-05T22:52:00.573Z,0.60
2019-05-05T22:54:33.674Z,1.10
2019-05-05T22:57:04.742Z,1.17
2019-05-05T22:59:35.803Z,1.00
2019-05-05T23:02:06.953Z,1.05
2019-05-05T23:04:47.936Z,1.20
2019-05-05T23:07:24.339Z,0.83
2019-05-05T23:09:55.348Z,1.17
2019-05-05T23:12:26.350Z,0.90
2019-05-05T23:14:57.641Z,1.00
2019-05-05T23:17:43.913Z,1.17
2019-05-05T23:21:10.041Z,1.00
2019-05-05T23:23:56.325Z,0.73
2019-05-05T23:26:28.792Z,0.73
2019-05-05T23:29:00.611Z,1.00
2019-05-05T23:31:33.447Z,1.33
2019-05-05T23:34:04.586Z,0.90
2019-05-05T23:36:35.657Z,1.30
2019-05-05T23:39:08.022Z,1.05
2019-05-05T23:41:39.791Z,0.88
2019-05-05T23:44:10.904Z,1.00
2019-05-05T23:46:41.980Z,0.83
2019-05-05T23:49:13.756Z,1.22
2019-05-05T23:51:44.938Z,1.60
2019-05-05T23:54:15.939Z,0.97
2019-05-05T23:56:48.175Z,1.43
2019-05-05T23:59:19.206Z,0.73
